Time;durP1;ratioP1;P1;durP2;ratioP2;P2;SDS_P1;SDS_P2;PMS_P1;PMS_P2;Temp;Humidity;BMP_temperature;BMP_pressure;BME280_temperature;BME280_humidity;BME280_pressure;Samples;Min_cycle;Max_cycle;Signal;HPM_P1;HPM_P2
2023/04/11 00:00:14;;;;;;;;;;;;;;;8.97;94.87;100760.81;5035978;28;1249;-84
2023/04/11 00:02:39;;;;;;;;;;;;;;;8.90;95.31;100762.25;5043324;28;2026;-84
2023/04/11 00:05:05;;;;;;;;;;;;;;;8.86;95.56;100758.22;5042675;28;1160;-86
2023/04/11 00:07:30;;;;;;;;;;;;;;;8.79;95.27;100757.06;5032933;28;1108;-83
2023/04/11 00:09:55;;;;;;;;;;;;;;;8.75;nan;100755.63;5036278;28;1141;-84
2023/04/11 00:12:21;;;;;;;;;;;;;;;8.76;95.88;100757.25;5033336;28;1049;-83
2023/04/11 00:14:47;;;;;;;;;;;;;;;8.71;95.42;100749.03;5037313;28;1169;-83
2023/04/11 00:17:13;;;;;;;;;;;;;;;8.64;95.72;100748.66;5038075;28;1141;-85
2023/04/11 00:19:38;;;;;;;;;;;;;;;8.62;95.60;100747.16;5038116;28;1874;-83
2023/04/11 00:22:03;;;;;;;;;;;;;;;8.58;95.74;100753.47;5043479;28;1954;-83
2023/04/11 00:24:29;;;;;;;;;;;;;;;8.52;95.37;100750.41;5037176;28;1315;-84
2023/04/11 00:26:55;;;;;;;;;;;;;;;8.50;95.63;100754.88;5037228;28;1097;-81
2023/04/11 00:29:22;;;;;;;;;;;;;;;8.48;95.57;100754.16;5029818;28;1470;-84
2023/04/11 00:31:47;;;;;;;;;;;;;;;8.50;95.56;100762.63;5048922;28;1189;-84
2023/04/11 00:34:12;;;;;;;;;;;;;;;8.51;95.22;100768.63;5041032;28;1674;-81
2023/04/11 00:36:40;;;;;;;;;;;;;;;8.36;95.48;100760.22;5037405;28;1104;-83
2023/04/11 00:39:05;;;;;;;;;;;;;;;8.35;95.37;100763.72;5042647;28;1535;-83
2023/04/11 00:41:31;;;;;;;;;;;;;;;8.32;95.45;100763.97;5027672;28;1902;-83
2023/04/11 00:43:56;;;;;;;;;;;;;;;8.28;95.33;100770.28;5040343;28;1680;-84
2023/04/11 00:46:21;;;;;;;;;;;;;;;8.29;95.96;100769.34;5016788;28;1336;-83
2023/04/11 00:48:47;;;;;;;;;;;;;;;8.24;95.80;100781.75;5044211;28;1347;-84
2023/04/11 00:51:14;;;;;;;;;;;;;;;8.15;96.09;100772.09;5038684;28;1369;-82
2023/04/11 00:53:39;;;;;;;;;;;;;;;8.20;95.78;100772.56;5037220;28;1210;-84
2023/04/11 00:56:05;;;;;;;;;;;;;;;8.10;95.99;100774.19;5041796;28;1297;-84
2023/04/11 00:58:32;;;;;;;;;;;;;;;8.06;96.15;100772.75;5037213;28;971;-84
2023/04/11 01:00:57;;;;;;;;;;;;;;;8.02;96.37;100768.75;5042101;28;1274;-83
2023/04/11 01:03:23;;;;;;;;;;;;;;;7.98;96.69;100766.38;5045486;28;1902;-83
2023/04/11 01:05:51;;;;;;;;;;;;;;;7.97;96.15;100780.25;5028525;28;1224;-82
2023/04/11 01:08:17;;;;;;;;;;;;;;;7.99;96.69;100773.19;5030121;28;1079;-83
2023/04/11 01:10:42;;;;;;;;;;;;;;;7.95;96.42;100771.75;5030743;28;1141;-83
2023/04/11 01:13:08;;;;;;;;;;;;;;;7.95;96.51;100776.94;5040583;28;1328;-84
2023/04/11 01:15:33;;;;;;;;;;;;;;;7.97;97.23;100769.06;5040303;28;1100;-83
2023/04/11 01:18:00;;;;;;;;;;;;;;;7.92;96.36;100774.56;5038495;28;1237;-83
2023/04/11 01:20:26;;;;;;;;;;;;;;;7.89;96.59;100769.63;5039696;28;1200;-82
2023/04/11 01:22:51;;;;;;;;;;;;;;;7.86;96.84;100777.59;5040360;28;1894;-83
2023/04/11 01:25:20;;;;;;;;;;;;;;;7.83;97.11;100772.63;5036627;28;1180;-82
2023/04/11 01:27:47;;;;;;;;;;;;;;;7.80;96.56;100772.88;5046276;28;1494;-84
2023/04/11 01:30:12;;;;;;;;;;;;;;;7.85;97.45;100765.59;5041843;28;1269;-82
2023/04/11 01:32:37;;;;;;;;;;;;;;;7.83;97.34;100762.31;5034574;28;1763;-83
2023/04/11 01:35:04;;;;;;;;;;;;;;;7.79;97.22;100770.38;5039201;28;1329;-81
2023/04/11 01:37:29;;;;;;;;;;;;;;;7.75;96.80;100774.94;5038195;28;1265;-83
2023/04/11 01:39:54;;;;;;;;;;;;;;;7.70;97.43;100769.28;5036095;28;1308;-84
2023/04/11 01:42:20;;;;;;;;;;;;;;;7.73;96.86;100771.63;5034389;28;1955;-85
2023/04/11 01:44:45;;;;;;;;;;;;;;;7.75;97.66;100774.13;5044198;28;1301;-84
2023/04/11 01:47:10;;;;;;;;;;;;;;;7.68;97.86;100778.88;5032535;28;1100;-84
2023/04/11 01:49:36;;;;;;;;;;;;;;;7.66;97.96;100775.59;5027457;28;1177;-83
2023/04/11 01:52:01;;;;;;;;;;;;;;;7.68;96.97;100789.19;5043685;28;1114;-80
2023/04/11 01:54:27;;;;;;;;;;;;;;;7.61;97.51;100781.06;5033688;28;1150;-84
2023/04/11 01:56:53;;;;;;;;;;;;;;;7.65;97.56;100773.94;5039598;28;1626;-83
2023/04/11 01:59:18;;;;;;;;;;;;;;;7.62;97.76;100789.63;5015473;28;1271;-81
2023/04/11 02:01:44;;;;;;;;;;;;;;;7.61;97.71;100803.47;5037200;28;1918;-83
2023/04/11 02:04:09;;;;;;;;;;;;;;;7.57;97.68;100802.88;5025687;28;1606;-84
2023/04/11 02:06:34;;;;;;;;;;;;;;;7.54;97.81;100808.22;5034938;28;1105;-84
2023/04/11 02:09:00;;;;;;;;;;;;;;;7.53;97.78;100795.44;5038968;28;1451;-82
2023/04/11 02:11:25;;;;;;;;;;;;;;;7.58;97.26;100808.84;5040906;28;1108;-82
2023/04/11 02:13:51;;;;;;;;;;;;;;;7.58;97.88;100819.19;5039693;28;1142;-80
2023/04/11 02:16:16;;;;;;;;;;;;;;;7.51;98.04;100817.94;5040739;28;1230;-84
2023/04/11 02:18:42;;;;;;;;;;;;;;;7.48;97.46;100818.16;5039362;28;1105;-82
2023/04/11 02:21:08;;;;;;;;;;;;;;;7.53;97.79;100816.09;5033341;28;1264;-84
2023/04/11 02:23:33;;;;;;;;;;;;;;;7.45;97.55;100809.72;5035026;28;1914;-85
2023/04/11 02:25:59;;;;;;;;;;;;;;;7.50;98.01;100811.13;5045026;28;1190;-82
2023/04/11 02:28:25;;;;;;;;;;;;;;;7.41;97.02;100812.59;5027635;28;1261;-83
2023/04/11 02:30:50;;;;;;;;;;;;;;;7.44;97.57;100813.19;5035528;28;1210;-83
2023/04/11 02:33:15;;;;;;;;;;;;;;;7.43;97.35;100811.56;5042395;28;1231;-84
2023/04/11 02:35:41;;;;;;;;;;;;;;;7.40;97.45;100819.53;5037259;28;1117;-84
2023/04/11 02:38:06;;;;;;;;;;;;;;;7.43;98.11;100811.56;5031412;28;1394;-83
2023/04/11 02:40:31;;;;;;;;;;;;;;;7.40;97.11;100816.94;5037614;28;1243;-84
2023/04/11 02:42:56;;;;;;;;;;;;;;;7.40;97.27;100810.97;5020518;28;1939;-83
2023/04/11 02:45:21;;;;;;;;;;;;;;;7.37;98.10;100806.81;5023449;28;1650;-82
2023/04/11 02:47:47;;;;;;;;;;;;;;;7.38;98.07;100808.47;5034451;28;1540;-82
2023/04/11 02:50:12;;;;;;;;;;;;;;;7.37;97.96;100811.16;5045259;28;1211;-82
2023/04/11 02:52:38;;;;;;;;;;;;;;;7.35;97.50;100808.69;5041022;28;1158;-81
2023/04/11 02:55:03;;;;;;;;;;;;;;;7.37;97.56;100817.13;5015452;28;1192;-83
2023/04/11 02:57:28;;;;;;;;;;;;;;;7.38;97.63;100816.19;5032174;28;1257;-82
2023/04/11 02:59:54;;;;;;;;;;;;;;;7.42;97.77;100822.81;5028793;28;1228;-80
2023/04/11 03:02:19;;;;;;;;;;;;;;;7.38;97.86;100829.09;5033911;28;1963;-83
2023/04/11 03:04:45;;;;;;;;;;;;;;;7.39;97.60;100820.41;5024616;28;1295;-84
2023/04/11 03:07:11;;;;;;;;;;;;;;;7.35;97.97;100824.16;5034443;28;1102;-83
2023/04/11 03:09:36;;;;;;;;;;;;;;;7.35;97.59;100824.16;5037507;28;1251;-80
2023/04/11 03:12:01;;;;;;;;;;;;;;;7.37;98.06;100827.44;5041756;28;1293;-83
2023/04/11 03:14:27;;;;;;;;;;;;;;;7.38;97.91;100826.53;5038250;28;1183;-84
2023/04/11 03:16:52;;;;;;;;;;;;;;;7.32;97.19;100819.19;5039992;28;1034;-83
2023/04/11 03:19:17;;;;;;;;;;;;;;;7.31;97.43;100832.22;5039391;28;1162;-80
2023/04/11 03:21:42;;;;;;;;;;;;;;;7.31;95.73;100827.88;5040043;28;1965;-82
2023/04/11 03:24:07;;;;;;;;;;;;;;;7.29;96.41;100837.47;5019941;28;1284;-83
2023/04/11 03:26:33;;;;;;;;;;;;;;;7.31;95.80;100840.78;5033976;28;1105;-83
2023/04/11 03:28:58;;;;;;;;;;;;;;;7.30;95.86;100839.13;5049646;28;1230;-84
2023/04/11 03:31:23;;;;;;;;;;;;;;;7.28;96.10;100848.69;5040148;28;1537;-85
2023/04/11 03:33:49;;;;;;;;;;;;;;;7.32;95.47;100845.00;5040729;28;1142;-82
2023/04/11 03:36:14;;;;;;;;;;;;;;;7.33;96.03;100856.97;5036237;28;1003;-84
2023/04/11 03:38:39;;;;;;;;;;;;;;;7.29;95.25;100849.56;5040170;28;1112;-83
2023/04/11 03:41:04;;;;;;;;;;;;;;;7.33;95.12;100856.97;5039547;28;1639;-82
2023/04/11 03:43:30;;;;;;;;;;;;;;;7.31;94.71;100869.16;5025624;28;1960;-82
2023/04/11 03:45:55;;;;;;;;;;;;;;;7.36;94.95;100861.94;5041492;28;1510;-82
2023/04/11 03:48:20;;;;;;;;;;;;;;;7.34;94.49;100868.97;5039777;28;1308;-84
2023/04/11 03:50:46;;;;;;;;;;;;;;;7.31;94.40;100876.88;5043307;28;1216;-84
2023/04/11 03:53:11;;;;;;;;;;;;;;;7.31;93.66;100879.47;5047450;28;1352;-82
2023/04/11 03:55:36;;;;;;;;;;;;;;;7.32;94.38;100875.97;5041276;28;1416;-81
2023/04/11 03:58:01;;;;;;;;;;;;;;;7.38;93.60;100874.72;5043715;28;1261;-82
2023/04/11 04:00:27;;;;;;;;;;;;;;;7.42;93.40;100876.19;5041076;28;1297;-82
2023/04/11 04:02:52;;;;;;;;;;;;;;;7.34;93.08;100873.25;5019676;28;1906;-82
2023/04/11 04:05:17;;;;;;;;;;;;;;;7.32;92.65;100881.13;5036654;28;1282;-82
2023/04/11 04:07:42;;;;;;;;;;;;;;;7.30;93.35;100880.41;5042454;28;1030;-81
2023/04/11 04:10:08;;;;;;;;;;;;;;;7.41;92.24;100890.00;5051240;28;1182;-82
2023/04/11 04:12:33;;;;;;;;;;;;;;;7.27;92.77;100892.66;5047156;28;1161;-81
2023/04/11 04:14:58;;;;;;;;;;;;;;;7.27;92.86;100893.50;5044016;28;1538;-80
2023/04/11 04:17:24;;;;;;;;;;;;;;;7.25;93.35;100895.34;5042607;28;1328;-81
2023/04/11 04:19:49;;;;;;;;;;;;;;;7.24;92.67;100891.13;5047008;28;1345;-81
2023/04/11 04:22:16;;;;;;;;;;;;;;;7.23;92.46;100889.50;5042944;28;1886;-81
2023/04/11 04:24:44;;;;;;;;;;;;;;;7.21;92.65;100899.06;5048910;28;1274;-83
2023/04/11 04:27:12;;;;;;;;;;;;;;;7.20;92.18;100897.41;5050153;28;1014;-81
2023/04/11 04:29:38;;;;;;;;;;;;;;;7.30;91.56;100888.16;5052442;28;1197;-82
2023/04/11 04:32:09;;;;;;;;;;;;;;;7.32;91.62;100906.91;5044720;28;1273;-82
2023/04/11 04:34:39;;;;;;;;;;;;;;;7.24;92.08;100906.63;5050495;28;1472;-82
2023/04/11 04:37:04;;;;;;;;;;;;;;;7.21;92.05;100901.63;5043884;28;1123;-81
2023/04/11 04:39:32;;;;;;;;;;;;;;;7.21;91.97;100909.38;5032695;28;1238;-81
2023/04/11 04:41:58;;;;;;;;;;;;;;;7.21;92.40;100909.38;5043913;28;1906;-81
2023/04/11 04:44:24;;;;;;;;;;;;;;;7.24;91.50;100919.50;5036701;28;1467;-82
2023/04/11 04:46:56;;;;;;;;;;;;;;;7.22;91.53;100916.19;5046267;28;1209;-81
2023/04/11 04:49:21;;;;;;;;;;;;;;;7.21;92.19;100924.84;5030900;28;1467;-81
2023/04/11 04:51:46;;;;;;;;;;;;;;;7.17;92.21;100926.00;5041669;28;1205;-82
2023/04/11 04:54:12;;;;;;;;;;;;;;;7.18;91.80;100930.25;5040844;28;2002;-81
2023/04/11 04:56:37;;;;;;;;;;;;;;;7.30;90.93;100926.84;5042679;28;1548;-81
2023/04/11 04:59:02;;;;;;;;;;;;;;;7.16;90.73;100939.81;5038203;28;1509;-81
2023/04/11 05:01:28;;;;;;;;;;;;;;;7.09;91.53;100933.41;5038159;28;1209;-81
2023/04/11 05:03:59;;;;;;;;;;;;;;;7.06;91.39;100942.19;5044046;28;1878;-80
2023/04/11 05:06:28;;;;;;;;;;;;;;;7.05;90.72;100950.00;5031309;28;1220;-82
2023/04/11 05:08:55;;;;;;;;;;;;;;;7.04;92.04;100953.50;5032402;28;1295;-81
2023/04/11 05:11:21;;;;;;;;;;;;;;;7.02;91.43;100951.03;5028302;28;1305;-80
2023/04/11 05:13:46;;;;;;;;;;;;;;;6.96;90.39;100960.91;5041748;28;1357;-81
2023/04/11 05:16:11;;;;;;;;;;;;;;;6.92;91.02;100971.41;5041341;28;1097;-81
2023/04/11 05:18:37;;;;;;;;;;;;;;;6.90;90.98;100968.13;5035414;28;1133;-82
2023/04/11 05:21:04;;;;;;;;;;;;;;;6.91;90.37;100969.78;5031393;28;1453;-81
2023/04/11 05:23:29;;;;;;;;;;;;;;;6.88;90.47;100975.13;5039921;28;1917;-81
2023/04/11 05:25:54;;;;;;;;;;;;;;;6.84;91.08;100978.81;5043346;28;1305;-81
2023/04/11 05:28:19;;;;;;;;;;;;;;;6.83;90.93;100981.50;5027624;28;1269;-82
2023/04/11 05:30:45;;;;;;;;;;;;;;;6.80;90.88;100979.94;5040608;28;1190;-82
2023/04/11 05:33:11;;;;;;;;;;;;;;;6.81;90.32;100981.59;5025213;28;1598;-81
2023/04/11 05:35:36;;;;;;;;;;;;;;;6.81;90.73;100989.31;5037695;28;1092;-81
2023/04/11 05:38:02;;;;;;;;;;;;;;;6.78;90.20;100994.69;5024239;28;1195;-81
2023/04/11 05:40:27;;;;;;;;;;;;;;;6.80;91.45;100992.00;5039772;28;1268;-82
2023/04/11 05:42:52;;;;;;;;;;;;;;;6.78;90.14;100999.00;5025650;28;1953;-81
2023/04/11 05:45:18;;;;;;;;;;;;;;;6.79;90.94;101011.78;5044256;28;1162;-81
2023/04/11 05:47:43;;;;;;;;;;;;;;;6.82;90.86;101011.59;5039786;28;1123;-82
2023/04/11 05:50:09;;;;;;;;;;;;;;;6.77;90.56;101000.78;5033268;28;1292;-82
2023/04/11 05:52:34;;;;;;;;;;;;;;;6.85;89.95;101006.25;5036029;28;1167;-82
2023/04/11 05:55:00;;;;;;;;;;;;;;;6.84;90.36;101009.75;5033934;28;1348;-83
2023/04/11 05:57:25;;;;;;;;;;;;;;;6.86;90.09;101010.47;5035776;28;1552;-83
2023/04/11 05:59:51;;;;;;;;;;;;;;;6.92;89.79;101011.84;5038300;28;1148;-82
2023/04/11 06:02:17;;;;;;;;;;;;;;;7.01;89.34;101019.00;5035980;28;1882;-82
2023/04/11 06:04:42;;;;;;;;;;;;;;;6.98;89.57;101026.09;5040758;28;1034;-82
2023/04/11 06:07:07;;;;;;;;;;;;;;;6.99;89.94;101020.00;5038702;28;1292;-82
2023/04/11 06:09:32;;;;;;;;;;;;;;;7.02;89.74;101025.00;5040237;28;1000;-80
2023/04/11 06:11:58;;;;;;;;;;;;;;;7.08;90.46;101029.75;5043018;28;1409;-82
2023/04/11 06:14:23;;;;;;;;;;;;;;;7.16;89.77;101027.50;5040903;28;1205;-82
2023/04/11 06:16:48;;;;;;;;;;;;;;;7.28;89.56;101031.06;5033848;28;1129;-82
2023/04/11 06:19:13;;;;;;;;;;;;;;;7.20;89.04;101031.56;5037149;28;1564;-82
2023/04/11 06:21:38;;;;;;;;;;;;;;;7.24;88.96;101027.84;5032638;28;1973;-82
2023/04/11 06:24:06;;;;;;;;;;;;;;;7.23;89.90;101031.38;5033573;28;1740;-80
2023/04/11 06:26:31;;;;;;;;;;;;;;;7.29;89.42;101040.47;5033309;28;1246;-81
2023/04/11 06:28:57;;;;;;;;;;;;;;;7.35;89.45;101046.06;5024572;28;1623;-82
2023/04/11 06:31:22;;;;;;;;;;;;;;;7.37;89.30;101041.63;5034516;28;1153;-82
2023/04/11 06:33:47;;;;;;;;;;;;;;;7.41;89.30;101044.84;5033731;28;1090;-82
2023/04/11 06:36:12;;;;;;;;;;;;;;;7.45;89.82;101043.69;5030095;28;1323;-81
2023/04/11 06:38:39;;;;;;;;;;;;;;;7.51;89.79;101055.38;5038764;28;1038;-82
2023/04/11 06:41:04;;;;;;;;;;;;;;;7.64;89.63;101056.25;5035971;28;1125;-81
2023/04/11 06:43:31;;;;;;;;;;;;;;;7.69;90.18;101059.34;5037694;28;1967;-82
2023/04/11 06:45:56;;;;;;;;;;;;;;;7.79;89.87;101065.53;5042563;28;1328;-82
2023/04/11 06:48:21;;;;;;;;;;;;;;;7.80;90.17;101072.38;5022352;28;1865;-85
2023/04/11 06:50:47;;;;;;;;;;;;;;;7.69;90.33;101074.84;5026130;28;1314;-81
2023/04/11 06:53:12;;;;;;;;;;;;;;;7.53;91.32;101089.66;5034932;28;1175;-81
2023/04/11 06:55:37;;;;;;;;;;;;;;;7.41;90.66;101084.38;5027773;28;1125;-80
2023/04/11 06:58:02;;;;;;;;;;;;;;;7.42;90.29;101091.19;5034168;28;1428;-80
2023/04/11 07:00:27;;;;;;;;;;;;;;;7.24;91.30;101089.78;5036214;28;1281;-81
2023/04/11 07:02:53;;;;;;;;;;;;;;;7.20;92.33;101077.97;5041043;28;1967;-80
2023/04/11 07:05:18;;;;;;;;;;;;;;;7.22;91.88;101083.88;5030636;28;1153;-80
2023/04/11 07:07:43;;;;;;;;;;;;;;;7.20;92.21;101083.16;5037982;28;1150;-80
2023/04/11 07:10:09;;;;;;;;;;;;;;;7.17;92.14;101083.34;5038834;28;1010;-80
2023/04/11 07:12:34;;;;;;;;;;;;;;;7.11;92.40;101081.13;5034781;28;1216;-80
2023/04/11 07:15:00;;;;;;;;;;;;;;;7.07;92.13;101077.13;5027975;28;1467;-80
2023/04/11 07:17:25;;;;;;;;;;;;;;;7.19;92.71;101091.81;5026784;28;1209;-80
2023/04/11 07:19:50;;;;;;;;;;;;;;;7.19;92.88;101099.56;5028036;28;1202;-80
2023/04/11 07:22:16;;;;;;;;;;;;;;;7.27;94.39;101099.88;5023776;28;1898;-80
2023/04/11 07:24:42;;;;;;;;;;;;;;;7.34;93.78;101090.84;5033300;28;1305;-80
2023/04/11 07:27:07;;;;;;;;;;;;;;;7.44;94.28;101097.06;5028443;28;1184;-80
2023/04/11 07:29:32;;;;;;;;;;;;;;;7.57;94.32;101091.09;5041775;28;1061;-80
2023/04/11 07:31:58;;;;;;;;;;;;;;;7.71;94.52;101093.63;5026498;28;1413;-80
2023/04/11 07:34:23;;;;;;;;;;;;;;;7.86;93.99;101090.06;5043936;28;1223;-80
2023/04/11 07:36:48;;;;;;;;;;;;;;;7.98;94.51;101091.81;5035666;28;1136;-79
2023/04/11 07:39:14;;;;;;;;;;;;;;;8.09;94.12;101098.03;5029272;28;1083;-80
2023/04/11 07:41:39;;;;;;;;;;;;;;;8.14;94.15;101095.94;5037102;28;1263;-80
2023/04/11 07:44:08;;;;;;;;;;;;;;;8.09;93.94;101103.19;5028572;28;2197;-79
2023/04/11 07:46:33;;;;;;;;;;;;;;;8.12;93.33;101102.97;5029736;28;1175;-78
2023/04/11 07:48:58;;;;;;;;;;;;;;;8.01;92.84;101108.84;5031784;28;1087;-78
2023/04/11 07:51:25;;;;;;;;;;;;;;;8.02;92.82;101107.09;5044715;28;1026;-78
2023/04/11 07:53:50;;;;;;;;;;;;;;;8.31;90.95;101108.56;5040545;28;1116;-79
2023/04/11 07:56:16;;;;;;;;;;;;;;;8.16;91.83;101110.44;5034657;28;1205;-79
2023/04/11 07:58:41;;;;;;;;;;;;;;;8.31;91.84;101113.72;5025822;28;1378;-79
2023/04/11 08:01:07;;;;;;;;;;;;;;;8.35;92.31;101104.84;5032325;28;1183;-79
2023/04/11 08:03:33;;;;;;;;;;;;;;;8.46;91.23;101117.91;5037278;28;1962;-79
2023/04/11 08:05:58;;;;;;;;;;;;;;;8.54;90.91;101113.94;5041432;28;978;-79
2023/04/11 08:08:24;;;;;;;;;;;;;;;8.46;89.63;101120.47;5044248;28;1195;-79
2023/04/11 08:10:50;;;;;;;;;;;;;;;8.51;88.37;101125.34;5020185;28;1496;-78
2023/04/11 08:13:15;;;;;;;;;;;;;;;8.47;88.79;101129.88;5031194;28;1080;-78
2023/04/11 08:15:40;;;;;;;;;;;;;;;8.44;89.15;101129.28;5040903;28;1204;-79
2023/04/11 08:18:05;;;;;;;;;;;;;;;8.49;89.07;101128.03;5038980;28;1176;-79
2023/04/11 08:20:30;;;;;;;;;;;;;;;8.55;88.92;101131.16;5036727;28;1098;-78
2023/04/11 08:22:56;;;;;;;;;;;;;;;8.67;85.47;101122.53;5035997;28;1953;-78
2023/04/11 08:25:24;;;;;;;;;;;;;;;8.70;83.78;101143.81;5045781;28;1021;-79
2023/04/11 08:27:49;;;;;;;;;;;;;;;8.72;84.68;101148.91;5021221;28;1215;-79
2023/04/11 08:30:15;;;;;;;;;;;;;;;8.76;82.46;101142.59;5021993;28;1369;-78
2023/04/11 08:32:41;;;;;;;;;;;;;;;8.85;81.75;101154.91;5037057;28;1116;-78
2023/04/11 08:35:06;;;;;;;;;;;;;;;8.91;81.47;101154.47;5025742;28;1587;-79
2023/04/11 08:37:31;;;;;;;;;;;;;;;8.91;81.51;101164.81;5040326;28;1214;-78
2023/04/11 08:39:57;;;;;;;;;;;;;;;9.02;81.55;101157.13;5044445;28;1179;-79
2023/04/11 08:42:26;;;;;;;;;;;;;;;9.20;79.17;101165.38;5030557;28;1886;-78
2023/04/11 08:44:56;;;;;;;;;;;;;;;9.23;80.18;101172.06;5031334;28;1360;-79
2023/04/11 08:47:21;;;;;;;;;;;;;;;9.47;78.29;101161.78;5041187;28;2033;-79
2023/04/11 08:49:47;;;;;;;;;;;;;;;9.47;79.72;101167.78;5038332;28;1652;-79
2023/04/11 08:52:12;;;;;;;;;;;;;;;9.61;77.96;101184.06;5038264;28;1069;-79
2023/04/11 08:54:37;;;;;;;;;;;;;;;9.54;78.29;101168.97;5042047;28;1127;-79
2023/04/11 08:57:03;;;;;;;;;;;;;;;9.48;77.64;101174.59;5040822;28;1049;-79
2023/04/11 08:59:28;;;;;;;;;;;;;;;9.41;76.64;101188.91;5037246;28;1047;-79
2023/04/11 09:02:04;;;;;;;;;;;;;;;9.55;75.34;101175.81;5036755;28;2025;-79
2023/04/11 09:04:38;;;;;;;;;;;;;;;9.50;74.39;101183.06;5037574;28;1273;-79
2023/04/11 09:07:04;;;;;;;;;;;;;;;9.47;74.10;101185.91;5036303;28;1097;-79
2023/04/11 09:09:30;;;;;;;;;;;;;;;9.70;72.89;101183.44;5032760;28;1150;-79
2023/04/11 09:11:55;;;;;;;;;;;;;;;9.50;74.13;101172.72;5038791;28;1045;-78
2023/04/11 09:14:23;;;;;;;;;;;;;;;9.60;74.14;101175.47;5039418;28;1036;-79
2023/04/11 09:17:02;;;;;;;;;;;;;;;9.68;74.88;101174.91;5037979;28;1133;-79
2023/04/11 09:19:29;;;;;;;;;;;;;;;9.82;74.41;101167.00;5038596;28;1184;-78
2023/04/11 09:21:59;;;;;;;;;;;;;;;9.95;73.80;101172.09;5040774;28;1886;-78
2023/04/11 09:24:25;;;;;;;;;;;;;;;10.02;72.26;101168.94;5041186;28;1380;-78
2023/04/11 09:27:04;;;;;;;;;;;;;;;10.07;73.46;101177.19;5015847;28;1216;-79
2023/04/11 09:29:37;;;;;;;;;;;;;;;10.10;72.80;101187.34;5035718;28;963;-79
2023/04/11 09:32:02;;;;;;;;;;;;;;;10.19;71.17;101179.81;5028415;28;1471;-79
2023/04/11 09:34:28;;;;;;;;;;;;;;;10.20;71.94;101181.47;5038410;28;1189;-79
2023/04/11 09:36:53;;;;;;;;;;;;;;;10.23;70.68;101181.25;5044378;28;1038;-79
2023/04/11 09:39:19;;;;;;;;;;;;;;;10.33;68.94;101185.66;5043017;28;1021;-78
2023/04/11 09:41:44;;;;;;;;;;;;;;;10.27;70.35;101193.09;5043644;28;1124;-80
2023/04/11 09:44:10;;;;;;;;;;;;;;;10.32;69.80;101185.75;5036924;28;1942;-80
2023/04/11 09:46:36;;;;;;;;;;;;;;;10.43;69.80;101187.56;5022647;28;1742;-80
2023/04/11 09:49:01;;;;;;;;;;;;;;;10.47;70.16;101195.00;5039425;28;938;-79
2023/04/11 09:51:26;;;;;;;;;;;;;;;10.54;67.32;101193.59;5039437;28;1048;-80
2023/04/11 09:53:52;;;;;;;;;;;;;;;10.59;67.01;101199.25;5021984;28;1220;-80
2023/04/11 09:56:18;;;;;;;;;;;;;;;10.69;68.19;101211.53;5039426;28;1340;-80
2023/04/11 09:58:46;;;;;;;;;;;;;;;10.83;66.26;101206.13;5042286;28;1158;-80
2023/04/11 10:01:12;;;;;;;;;;;;;;;10.83;66.82;101193.13;5031421;28;1110;-79
2023/04/11 10:03:38;;;;;;;;;;;;;;;10.84;65.60;101198.22;5036935;28;1914;-79
2023/04/11 10:06:11;;;;;;;;;;;;;;;10.85;65.60;101193.88;5040214;28;1170;-79
2023/04/11 10:08:37;;;;;;;;;;;;;;;10.88;65.05;101183.22;5028945;28;1275;-79
2023/04/11 10:11:04;;;;;;;;;;;;;;;10.94;65.55;101198.34;5034010;28;1020;-80
2023/04/11 10:13:37;;;;;;;;;;;;;;;10.93;65.47;101191.50;5031686;28;1188;-79
2023/04/11 10:16:08;;;;;;;;;;;;;;;11.11;63.95;101205.63;5039001;28;1221;-79
2023/04/11 10:18:54;;;;;;;;;;;;;;;11.14;63.06;101202.81;5038738;28;1244;-79
2023/04/11 10:21:31;;;;;;;;;;;;;;;11.14;61.29;101202.81;5038518;28;1168;-80
2023/04/11 10:24:08;;;;;;;;;;;;;;;10.92;62.23;101208.00;5035460;28;1906;-79
2023/04/11 10:26:53;;;;;;;;;;;;;;;11.12;59.97;101211.66;5040057;28;1058;-79
2023/04/11 10:29:35;;;;;;;;;;;;;;;11.11;60.67;101207.41;5039668;28;1157;-79
2023/04/11 10:32:15;;;;;;;;;;;;;;;10.96;60.72;101217.22;5035028;28;1201;-80
2023/04/11 10:34:49;;;;;;;;;;;;;;;11.04;59.03;101214.84;5041568;28;1320;-79
2023/04/11 10:37:15;;;;;;;;;;;;;;;11.07;59.08;101209.44;5036602;28;1122;-79
2023/04/11 10:39:52;;;;;;;;;;;;;;;11.16;58.20;101213.91;5038541;28;1190;-78
2023/04/11 10:42:27;;;;;;;;;;;;;;;11.18;59.78;101221.56;5027507;28;1887;-79
2023/04/11 10:45:18;;;;;;;;;;;;;;;11.28;60.75;101221.69;5034563;28;1141;-79
2023/04/11 10:47:56;;;;;;;;;;;;;;;11.50;56.58;101221.66;5012342;28;1531;-79
2023/04/11 10:50:27;;;;;;;;;;;;;;;11.58;57.38;101229.63;5012727;28;1294;-78
2023/04/11 10:52:52;;;;;;;;;;;;;;;11.52;58.94;101227.53;5026731;28;1339;-78
2023/04/11 10:55:18;;;;;;;;;;;;;;;11.56;58.10;101236.75;5040942;28;2091;-78
2023/04/11 10:58:02;;;;;;;;;;;;;;;11.45;56.88;101241.97;5020909;28;1289;-78
2023/04/11 11:00:28;;;;;;;;;;;;;;;11.23;57.67;101239.38;5036915;28;1189;-78
2023/04/11 11:02:54;;;;;;;;;;;;;;;11.09;58.06;101233.50;5026129;28;1970;-78
2023/04/11 11:05:19;;;;;;;;;;;;;;;11.13;58.12;101228.91;5043174;28;1207;-78
2023/04/11 11:07:46;;;;;;;;;;;;;;;11.11;58.55;101241.97;5036296;28;1128;-78
2023/04/11 11:10:11;;;;;;;;;;;;;;;11.27;57.78;101220.03;5041504;28;1093;-78
2023/04/11 11:12:36;;;;;;;;;;;;;;;11.27;58.82;101230.41;5024153;28;1506;-78
2023/04/11 11:15:11;;;;;;;;;;;;;;;11.42;58.58;101224.84;5037691;28;1145;-78
2023/04/11 11:17:37;;;;;;;;;;;;;;;11.62;58.13;101231.06;5023866;28;1343;-78
2023/04/11 11:20:08;;;;;;;;;;;;;;;11.64;57.59;101229.19;5024943;28;1185;-78
2023/04/11 11:22:34;;;;;;;;;;;;;;;11.72;57.71;101235.53;5021905;28;1959;-78
2023/04/11 11:25:08;;;;;;;;;;;;;;;11.74;56.01;101244.84;5028380;28;1357;-78
2023/04/11 11:27:33;;;;;;;;;;;;;;;11.77;56.95;101225.59;5039440;28;1528;-78
2023/04/11 11:30:09;;;;;;;;;;;;;;;11.92;55.97;101233.00;5030117;28;1117;-78
2023/04/11 11:32:34;;;;;;;;;;;;;;;12.22;54.60;101239.28;5024410;28;1486;-78
2023/04/11 11:35:11;;;;;;;;;;;;;;;12.06;55.11;101234.50;5026957;28;1381;-78
2023/04/11 11:37:36;;;;;;;;;;;;;;;12.18;56.29;101237.88;5035158;28;1132;-77
2023/04/11 11:40:05;;;;;;;;;;;;;;;12.26;56.73;101239.84;5034323;28;1205;-78
2023/04/11 11:42:31;;;;;;;;;;;;;;;12.27;54.47;101246.69;5039673;28;1886;-78
2023/04/11 11:45:12;;;;;;;;;;;;;;;12.27;51.36;101246.69;5037641;28;1158;-78
2023/04/11 11:47:44;;;;;;;;;;;;;;;12.20;52.42;101249.78;5040731;28;1365;-78
2023/04/11 11:50:10;;;;;;;;;;;;;;;12.18;53.91;101254.28;5041432;28;1141;-78
2023/04/11 11:52:38;;;;;;;;;;;;;;;12.34;52.78;101248.69;5035016;28;1193;-78
2023/04/11 11:55:05;;;;;;;;;;;;;;;12.26;55.05;101245.84;5037099;28;1211;-78
2023/04/11 11:57:33;;;;;;;;;;;;;;;12.46;55.44;101239.03;5031178;28;1202;-78
2023/04/11 12:00:00;;;;;;;;;;;;;;;12.40;55.63;101252.53;5039343;28;1192;-78
2023/04/11 12:02:26;;;;;;;;;;;;;;;12.51;55.60;101255.09;5041401;28;1938;-77
2023/04/11 12:04:58;;;;;;;;;;;;;;;12.59;56.70;101257.88;5042916;28;1157;-77
2023/04/11 12:07:23;;;;;;;;;;;;;;;12.71;55.81;101263.81;5032640;28;1098;-78
2023/04/11 12:09:49;;;;;;;;;;;;;;;12.67;56.79;101265.88;5037341;28;1102;-77
2023/04/11 12:12:16;;;;;;;;;;;;;;;12.69;57.44;101263.97;5038127;28;2175;-78
2023/04/11 12:14:50;;;;;;;;;;;;;;;12.80;56.72;101264.84;5030395;28;1146;-78
2023/04/11 12:17:16;;;;;;;;;;;;;;;12.91;56.33;101263.00;5046998;28;1337;-77
2023/04/11 12:19:41;;;;;;;;;;;;;;;13.07;54.75;101265.09;5042398;28;1329;-77
2023/04/11 12:22:06;;;;;;;;;;;;;;;13.11;53.69;101263.88;5042130;28;1890;-77
2023/04/11 12:24:31;;;;;;;;;;;;;;;13.09;52.45;101265.00;5028827;28;1334;-77
2023/04/11 12:26:57;;;;;;;;;;;;;;;13.10;49.83;101261.44;5042478;28;1182;-77
2023/04/11 12:29:23;;;;;;;;;;;;;;;13.02;51.32;101285.53;5047062;28;1190;-78
2023/04/11 12:31:48;;;;;;;;;;;;;;;13.00;49.65;101266.59;5039013;28;1165;-77
2023/04/11 12:34:13;;;;;;;;;;;;;;;12.94;48.33;101267.09;5041314;28;1106;-77
2023/04/11 12:36:39;;;;;;;;;;;;;;;12.94;47.38;101264.50;5036173;28;1188;-77
2023/04/11 12:39:04;;;;;;;;;;;;;;;12.88;49.21;101272.81;5041465;28;1006;-77
2023/04/11 12:41:29;;;;;;;;;;;;;;;12.89;48.83;101267.47;5047299;28;1116;-77
2023/04/11 12:43:55;;;;;;;;;;;;;;;12.98;49.38;101273.72;5035658;28;1967;-77
2023/04/11 12:46:20;;;;;;;;;;;;;;;12.99;50.16;101265.75;5044369;28;1121;-78
2023/04/11 12:48:45;;;;;;;;;;;;;;;13.03;49.97;101276.75;5020051;28;1359;-77
2023/04/11 12:51:10;;;;;;;;;;;;;;;13.25;48.01;101274.00;5040648;28;1345;-78